sensor_id;sensor_type;location;lat;lon;timestamp;temperature;humidity
18260;DHT22;9256;52.236;5.712;2023-03-29T00:02:05;5.60;99.90
18260;DHT22;9256;52.236;5.712;2023-03-29T00:04:34;5.60;99.90
18260;DHT22;9256;52.236;5.712;2023-03-29T00:07:01;5.50;99.90
18260;DHT22;9256;52.236;5.712;2023-03-29T00:09:29;5.60;99.90
18260;DHT22;9256;52.236;5.712;2023-03-29T00:11:56;5.50;99.90
18260;DHT22;9256;52.236;5.712;2023-03-29T00:14:23;5.50;99.90
18260;DHT22;9256;52.236;5.712;2023-03-29T00:16:52;5.60;99.90
18260;DHT22;9256;52.236;5.712;2023-03-29T00:19:19;5.50;99.90
18260;DHT22;9256;52.236;5.712;2023-03-29T00:21:46;5.60;99.90
18260;DHT22;9256;52.236;5.712;2023-03-29T00:24:13;5.60;99.90
18260;DHT22;9256;52.236;5.712;2023-03-29T00:26:40;5.70;99.90
18260;DHT22;9256;52.236;5.712;2023-03-29T00:29:07;5.70;99.90
18260;DHT22;9256;52.236;5.712;2023-03-29T00:31:34;5.60;99.90
18260;DHT22;9256;52.236;5.712;2023-03-29T00:34:02;5.60;99.90
18260;DHT22;9256;52.236;5.712;2023-03-29T00:36:29;5.60;99.90
18260;DHT22;9256;52.236;5.712;2023-03-29T00:38:56;5.60;99.90
18260;DHT22;9256;52.236;5.712;2023-03-29T00:41:23;5.60;99.90
18260;DHT22;9256;52.236;5.712;2023-03-29T00:43:52;5.60;99.90
18260;DHT22;9256;52.236;5.712;2023-03-29T00:46:20;5.60;99.90
18260;DHT22;9256;52.236;5.712;2023-03-29T00:48:47;5.70;99.90
18260;DHT22;9256;52.236;5.712;2023-03-29T00:51:18;5.70;99.90
18260;DHT22;9256;52.236;5.712;2023-03-29T00:53:48;5.70;99.90
18260;DHT22;9256;52.236;5.712;2023-03-29T00:56:19;5.70;99.90
18260;DHT22;9256;52.236;5.712;2023-03-29T00:58:52;5.70;99.90
18260;DHT22;9256;52.236;5.712;2023-03-29T01:01:26;5.70;99.90
18260;DHT22;9256;52.236;5.712;2023-03-29T01:03:59;5.70;99.90
18260;DHT22;9256;52.236;5.712;2023-03-29T01:06:31;5.70;99.90
18260;DHT22;9256;52.236;5.712;2023-03-29T01:09:03;5.70;99.90
18260;DHT22;9256;52.236;5.712;2023-03-29T01:11:37;5.70;99.90
18260;DHT22;9256;52.236;5.712;2023-03-29T01:14:09;5.70;99.90
18260;DHT22;9256;52.236;5.712;2023-03-29T01:16:37;5.80;99.90
18260;DHT22;9256;52.236;5.712;2023-03-29T01:19:06;5.70;99.90
18260;DHT22;9256;52.236;5.712;2023-03-29T01:21:39;5.70;99.90
18260;DHT22;9256;52.236;5.712;2023-03-29T01:27:07;5.70;99.90
18260;DHT22;9256;52.236;5.712;2023-03-29T01:29:40;5.70;99.90
18260;DHT22;9256;52.236;5.712;2023-03-29T01:32:13;5.70;99.90
18260;DHT22;9256;52.236;5.712;2023-03-29T01:34:44;5.70;99.90
18260;DHT22;9256;52.236;5.712;2023-03-29T01:37:18;5.80;99.90
18260;DHT22;9256;52.236;5.712;2023-03-29T01:39:49;5.80;99.90
18260;DHT22;9256;52.236;5.712;2023-03-29T01:42:28;5.80;99.90
18260;DHT22;9256;52.236;5.712;2023-03-29T01:45:05;5.80;99.90
18260;DHT22;9256;52.236;5.712;2023-03-29T01:47:40;5.80;99.90
18260;DHT22;9256;52.236;5.712;2023-03-29T01:50:13;5.80;99.90
18260;DHT22;9256;52.236;5.712;2023-03-29T01:52:46;5.80;99.90
18260;DHT22;9256;52.236;5.712;2023-03-29T01:55:17;5.80;99.90
18260;DHT22;9256;52.236;5.712;2023-03-29T01:57:46;5.80;99.90
18260;DHT22;9256;52.236;5.712;2023-03-29T02:00:18;5.80;99.90
18260;DHT22;9256;52.236;5.712;2023-03-29T02:02:47;5.80;99.90
18260;DHT22;9256;52.236;5.712;2023-03-29T02:05:16;5.90;99.90
18260;DHT22;9256;52.236;5.712;2023-03-29T02:07:45;5.90;99.90
18260;DHT22;9256;52.236;5.712;2023-03-29T02:10:14;5.80;99.90
18260;DHT22;9256;52.236;5.712;2023-03-29T02:12:42;5.80;99.90
18260;DHT22;9256;52.236;5.712;2023-03-29T02:15:11;5.80;99.90
18260;DHT22;9256;52.236;5.712;2023-03-29T02:17:40;5.80;99.90
18260;DHT22;9256;52.236;5.712;2023-03-29T02:20:11;5.80;99.90
18260;DHT22;9256;52.236;5.712;2023-03-29T02:22:45;5.80;99.90
18260;DHT22;9256;52.236;5.712;2023-03-29T02:25:13;5.80;99.90
18260;DHT22;9256;52.236;5.712;2023-03-29T02:27:42;5.80;99.90
18260;DHT22;9256;52.236;5.712;2023-03-29T02:30:10;5.80;99.90
18260;DHT22;9256;52.236;5.712;2023-03-29T02:32:46;5.90;99.90
18260;DHT22;9256;52.236;5.712;2023-03-29T02:35:19;5.90;99.90
18260;DHT22;9256;52.236;5.712;2023-03-29T02:37:49;5.90;99.90
18260;DHT22;9256;52.236;5.712;2023-03-29T02:40:20;5.80;99.90
18260;DHT22;9256;52.236;5.712;2023-03-29T02:42:49;5.90;99.90
18260;DHT22;9256;52.236;5.712;2023-03-29T02:45:17;6.00;99.90
18260;DHT22;9256;52.236;5.712;2023-03-29T02:47:48;6.00;99.90
18260;DHT22;9256;52.236;5.712;2023-03-29T02:50:17;5.90;99.90
18260;DHT22;9256;52.236;5.712;2023-03-29T02:52:51;5.90;99.90
18260;DHT22;9256;52.236;5.712;2023-03-29T02:55:21;5.80;99.90
18260;DHT22;9256;52.236;5.712;2023-03-29T02:57:49;5.80;99.90
18260;DHT22;9256;52.236;5.712;2023-03-29T03:00:16;5.80;99.90
18260;DHT22;9256;52.236;5.712;2023-03-29T03:02:46;5.80;99.90
18260;DHT22;9256;52.236;5.712;2023-03-29T03:05:15;5.80;99.90
18260;DHT22;9256;52.236;5.712;2023-03-29T03:07:42;5.80;99.90
18260;DHT22;9256;52.236;5.712;2023-03-29T03:10:10;5.80;99.90
18260;DHT22;9256;52.236;5.712;2023-03-29T03:12:37;5.80;99.90
18260;DHT22;9256;52.236;5.712;2023-03-29T03:15:05;5.80;99.90
18260;DHT22;9256;52.236;5.712;2023-03-29T03:17:32;5.80;99.90
18260;DHT22;9256;52.236;5.712;2023-03-29T03:20:07;5.70;99.90
18260;DHT22;9256;52.236;5.712;2023-03-29T03:22:37;5.70;99.90
18260;DHT22;9256;52.236;5.712;2023-03-29T03:25:05;5.80;99.90
18260;DHT22;9256;52.236;5.712;2023-03-29T03:27:34;5.70;99.90
18260;DHT22;9256;52.236;5.712;2023-03-29T03:30:01;5.70;99.90
18260;DHT22;9256;52.236;5.712;2023-03-29T03:32:30;5.70;99.90
18260;DHT22;9256;52.236;5.712;2023-03-29T03:34:57;5.80;99.90
18260;DHT22;9256;52.236;5.712;2023-03-29T03:37:25;5.80;99.90
18260;DHT22;9256;52.236;5.712;2023-03-29T03:39:53;5.80;99.90
18260;DHT22;9256;52.236;5.712;2023-03-29T03:42:20;5.80;99.90
18260;DHT22;9256;52.236;5.712;2023-03-29T03:44:47;5.80;99.90
18260;DHT22;9256;52.236;5.712;2023-03-29T03:47:14;5.80;99.90
18260;DHT22;9256;52.236;5.712;2023-03-29T03:49:41;5.90;99.90
18260;DHT22;9256;52.236;5.712;2023-03-29T03:52:08;5.90;99.90
18260;DHT22;9256;52.236;5.712;2023-03-29T03:54:36;5.90;99.90
18260;DHT22;9256;52.236;5.712;2023-03-29T03:57:03;5.90;99.90
18260;DHT22;9256;52.236;5.712;2023-03-29T03:59:30;6.00;99.90
18260;DHT22;9256;52.236;5.712;2023-03-29T04:01:58;5.90;99.90
18260;DHT22;9256;52.236;5.712;2023-03-29T04:04:25;5.90;99.90
18260;DHT22;9256;52.236;5.712;2023-03-29T04:06:53;6.10;99.90
18260;DHT22;9256;52.236;5.712;2023-03-29T04:09:27;6.00;99.90
18260;DHT22;9256;52.236;5.712;2023-03-29T04:11:56;6.00;99.90
18260;DHT22;9256;52.236;5.712;2023-03-29T04:14:23;6.00;99.90
18260;DHT22;9256;52.236;5.712;2023-03-29T04:16:50;6.00;99.90
18260;DHT22;9256;52.236;5.712;2023-03-29T04:19:18;6.00;99.90
18260;DHT22;9256;52.236;5.712;2023-03-29T04:21:45;6.00;99.90
18260;DHT22;9256;52.236;5.712;2023-03-29T04:24:14;6.10;99.90
18260;DHT22;9256;52.236;5.712;2023-03-29T04:26:41;6.10;99.90
18260;DHT22;9256;52.236;5.712;2023-03-29T04:29:10;6.10;99.90
18260;DHT22;9256;52.236;5.712;2023-03-29T04:31:37;6.10;99.90
18260;DHT22;9256;52.236;5.712;2023-03-29T04:34:03;6.20;99.90
18260;DHT22;9256;52.236;5.712;2023-03-29T04:36:30;6.10;99.90
18260;DHT22;9256;52.236;5.712;2023-03-29T04:38:57;6.20;99.90
18260;DHT22;9256;52.236;5.712;2023-03-29T04:41:26;6.30;99.90
18260;DHT22;9256;52.236;5.712;2023-03-29T04:43:53;6.20;99.90
18260;DHT22;9256;52.236;5.712;2023-03-29T04:46:22;6.20;99.90
18260;DHT22;9256;52.236;5.712;2023-03-29T04:48:50;6.30;99.90
18260;DHT22;9256;52.236;5.712;2023-03-29T04:51:18;6.20;99.90
18260;DHT22;9256;52.236;5.712;2023-03-29T04:53:47;6.20;99.90
18260;DHT22;9256;52.236;5.712;2023-03-29T04:56:14;6.30;99.90
18260;DHT22;9256;52.236;5.712;2023-03-29T04:58:42;6.30;99.90
18260;DHT22;9256;52.236;5.712;2023-03-29T05:01:10;6.30;99.90
18260;DHT22;9256;52.236;5.712;2023-03-29T05:03:38;6.30;99.90
18260;DHT22;9256;52.236;5.712;2023-03-29T05:06:07;6.20;99.90
18260;DHT22;9256;52.236;5.712;2023-03-29T05:08:35;6.20;99.90
18260;DHT22;9256;52.236;5.712;2023-03-29T05:11:04;6.20;99.90
18260;DHT22;9256;52.236;5.712;2023-03-29T05:13:32;6.30;99.90
18260;DHT22;9256;52.236;5.712;2023-03-29T05:15:59;6.30;99.90
18260;DHT22;9256;52.236;5.712;2023-03-29T05:18:26;6.40;99.90
18260;DHT22;9256;52.236;5.712;2023-03-29T05:20:55;6.40;99.90
18260;DHT22;9256;52.236;5.712;2023-03-29T05:23:23;6.30;99.90
18260;DHT22;9256;52.236;5.712;2023-03-29T05:25:51;6.30;99.90
18260;DHT22;9256;52.236;5.712;2023-03-29T05:28:18;6.30;99.90
18260;DHT22;9256;52.236;5.712;2023-03-29T05:30:46;6.30;99.90
18260;DHT22;9256;52.236;5.712;2023-03-29T05:33:13;6.40;99.90
18260;DHT22;9256;52.236;5.712;2023-03-29T05:35:40;6.40;99.90
18260;DHT22;9256;52.236;5.712;2023-03-29T05:38:09;6.50;99.90
18260;DHT22;9256;52.236;5.712;2023-03-29T05:40:36;6.50;99.90
18260;DHT22;9256;52.236;5.712;2023-03-29T05:43:03;6.50;99.90
18260;DHT22;9256;52.236;5.712;2023-03-29T05:45:30;6.50;99.90
18260;DHT22;9256;52.236;5.712;2023-03-29T05:47:58;6.50;99.90
18260;DHT22;9256;52.236;5.712;2023-03-29T05:50:25;6.50;99.90
18260;DHT22;9256;52.236;5.712;2023-03-29T05:52:52;6.50;99.90
18260;DHT22;9256;52.236;5.712;2023-03-29T05:55:20;6.50;99.90
18260;DHT22;9256;52.236;5.712;2023-03-29T05:57:48;6.50;99.90
18260;DHT22;9256;52.236;5.712;2023-03-29T06:00:16;6.50;99.90
18260;DHT22;9256;52.236;5.712;2023-03-29T06:02:49;6.50;99.90
18260;DHT22;9256;52.236;5.712;2023-03-29T06:05:17;6.60;99.90
18260;DHT22;9256;52.236;5.712;2023-03-29T06:07:45;6.70;99.90
18260;DHT22;9256;52.236;5.712;2023-03-29T06:10:13;6.70;99.90
18260;DHT22;9256;52.236;5.712;2023-03-29T06:12:42;6.80;99.90
18260;DHT22;9256;52.236;5.712;2023-03-29T06:15:10;6.80;99.90
18260;DHT22;9256;52.236;5.712;2023-03-29T06:17:37;6.80;99.90
18260;DHT22;9256;52.236;5.712;2023-03-29T06:20:06;6.80;99.90
18260;DHT22;9256;52.236;5.712;2023-03-29T06:22:35;6.90;99.90
18260;DHT22;9256;52.236;5.712;2023-03-29T06:25:03;6.90;99.90
18260;DHT22;9256;52.236;5.712;2023-03-29T06:27:30;7.00;99.90
18260;DHT22;9256;52.236;5.712;2023-03-29T06:29:58;7.00;99.90
18260;DHT22;9256;52.236;5.712;2023-03-29T06:32:26;7.10;99.90
18260;DHT22;9256;52.236;5.712;2023-03-29T06:34:53;7.20;99.90
18260;DHT22;9256;52.236;5.712;2023-03-29T06:37:20;7.10;99.90
18260;DHT22;9256;52.236;5.712;2023-03-29T06:39:48;7.20;99.90
18260;DHT22;9256;52.236;5.712;2023-03-29T06:42:17;7.20;99.90
18260;DHT22;9256;52.236;5.712;2023-03-29T06:44:45;7.30;99.90
18260;DHT22;9256;52.236;5.712;2023-03-29T06:47:14;7.40;99.90
18260;DHT22;9256;52.236;5.712;2023-03-29T06:49:42;7.40;99.90
18260;DHT22;9256;52.236;5.712;2023-03-29T06:52:09;7.40;99.90
18260;DHT22;9256;52.236;5.712;2023-03-29T06:54:36;7.50;99.90
18260;DHT22;9256;52.236;5.712;2023-03-29T06:57:03;7.50;99.90
18260;DHT22;9256;52.236;5.712;2023-03-29T06:59:32;7.60;99.90
18260;DHT22;9256;52.236;5.712;2023-03-29T07:01:59;7.60;99.90
18260;DHT22;9256;52.236;5.712;2023-03-29T07:04:28;7.70;99.90
18260;DHT22;9256;52.236;5.712;2023-03-29T07:06:57;7.70;99.90
18260;DHT22;9256;52.236;5.712;2023-03-29T07:09:27;7.80;99.90
18260;DHT22;9256;52.236;5.712;2023-03-29T07:11:55;7.90;99.90
18260;DHT22;9256;52.236;5.712;2023-03-29T07:14:22;7.90;99.90
18260;DHT22;9256;52.236;5.712;2023-03-29T07:16:53;8.10;99.90
18260;DHT22;9256;52.236;5.712;2023-03-29T07:19:20;8.20;99.90
18260;DHT22;9256;52.236;5.712;2023-03-29T07:21:50;8.40;99.90
18260;DHT22;9256;52.236;5.712;2023-03-29T07:24:18;8.40;99.90
18260;DHT22;9256;52.236;5.712;2023-03-29T07:26:45;8.50;99.90
18260;DHT22;9256;52.236;5.712;2023-03-29T07:29:13;8.60;99.90
18260;DHT22;9256;52.236;5.712;2023-03-29T07:31:40;8.80;99.90
18260;DHT22;9256;52.236;5.712;2023-03-29T07:34:08;8.80;99.90
18260;DHT22;9256;52.236;5.712;2023-03-29T07:36:36;9.00;99.90
18260;DHT22;9256;52.236;5.712;2023-03-29T07:39:06;9.00;99.90
18260;DHT22;9256;52.236;5.712;2023-03-29T07:41:33;9.00;99.90
18260;DHT22;9256;52.236;5.712;2023-03-29T07:44:00;9.10;99.90
18260;DHT22;9256;52.236;5.712;2023-03-29T07:46:33;9.20;99.90
18260;DHT22;9256;52.236;5.712;2023-03-29T07:49:01;9.30;99.90
18260;DHT22;9256;52.236;5.712;2023-03-29T07:51:28;9.40;99.90
18260;DHT22;9256;52.236;5.712;2023-03-29T07:53:55;9.40;99.90
18260;DHT22;9256;52.236;5.712;2023-03-29T07:56:23;9.50;99.90
18260;DHT22;9256;52.236;5.712;2023-03-29T07:58:51;9.60;99.90
18260;DHT22;9256;52.236;5.712;2023-03-29T08:01:17;9.70;99.90
18260;DHT22;9256;52.236;5.712;2023-03-29T08:03:44;9.80;99.90
18260;DHT22;9256;52.236;5.712;2023-03-29T08:06:11;9.80;99.90
18260;DHT22;9256;52.236;5.712;2023-03-29T08:08:40;9.80;99.90
18260;DHT22;9256;52.236;5.712;2023-03-29T08:11:07;9.80;99.90
18260;DHT22;9256;52.236;5.712;2023-03-29T08:13:36;9.90;99.90
18260;DHT22;9256;52.236;5.712;2023-03-29T08:16:03;9.80;99.90
18260;DHT22;9256;52.236;5.712;2023-03-29T08:18:30;9.90;99.90
18260;DHT22;9256;52.236;5.712;2023-03-29T08:20:57;9.90;99.90
18260;DHT22;9256;52.236;5.712;2023-03-29T08:23:24;9.90;99.90
18260;DHT22;9256;52.236;5.712;2023-03-29T08:25:51;9.90;99.90
18260;DHT22;9256;52.236;5.712;2023-03-29T08:28:18;10.10;99.90
18260;DHT22;9256;52.236;5.712;2023-03-29T08:30:46;10.20;99.90
18260;DHT22;9256;52.236;5.712;2023-03-29T08:33:14;10.10;99.90
18260;DHT22;9256;52.236;5.712;2023-03-29T08:35:41;10.20;99.90
18260;DHT22;9256;52.236;5.712;2023-03-29T08:38:08;10.30;99.90
18260;DHT22;9256;52.236;5.712;2023-03-29T08:40:35;10.40;99.90
18260;DHT22;9256;52.236;5.712;2023-03-29T08:43:23;10.40;99.90
18260;DHT22;9256;52.236;5.712;2023-03-29T08:46:06;10.40;99.90
18260;DHT22;9256;52.236;5.712;2023-03-29T08:48:38;10.40;99.90
18260;DHT22;9256;52.236;5.712;2023-03-29T08:51:14;10.40;99.90
18260;DHT22;9256;52.236;5.712;2023-03-29T08:53:46;10.70;99.90
18260;DHT22;9256;52.236;5.712;2023-03-29T08:56:15;10.80;99.90
18260;DHT22;9256;52.236;5.712;2023-03-29T08:58:44;10.80;99.90
18260;DHT22;9256;52.236;5.712;2023-03-29T09:01:14;10.90;99.90
18260;DHT22;9256;52.236;5.712;2023-03-29T09:03:44;11.00;99.90
18260;DHT22;9256;52.236;5.712;2023-03-29T09:06:13;10.90;99.90
18260;DHT22;9256;52.236;5.712;2023-03-29T09:08:44;10.70;99.90
18260;DHT22;9256;52.236;5.712;2023-03-29T09:11:24;10.90;99.90
18260;DHT22;9256;52.236;5.712;2023-03-29T09:14:02;11.00;99.90
18260;DHT22;9256;52.236;5.712;2023-03-29T09:16:39;11.10;99.90
18260;DHT22;9256;52.236;5.712;2023-03-29T09:19:18;11.10;99.90
18260;DHT22;9256;52.236;5.712;2023-03-29T09:21:53;11.10;99.90
18260;DHT22;9256;52.236;5.712;2023-03-29T09:24:39;11.10;99.90
18260;DHT22;9256;52.236;5.712;2023-03-29T09:27:12;11.00;99.90
18260;DHT22;9256;52.236;5.712;2023-03-29T09:29:49;11.20;99.90
18260;DHT22;9256;52.236;5.712;2023-03-29T09:32:21;11.40;99.90
18260;DHT22;9256;52.236;5.712;2023-03-29T09:34:53;11.30;99.90
18260;DHT22;9256;52.236;5.712;2023-03-29T09:37:29;11.30;99.90
18260;DHT22;9256;52.236;5.712;2023-03-29T09:39:58;11.30;99.90
18260;DHT22;9256;52.236;5.712;2023-03-29T09:42:27;11.30;99.90
18260;DHT22;9256;52.236;5.712;2023-03-29T09:44:58;11.20;99.90
18260;DHT22;9256;52.236;5.712;2023-03-29T09:47:36;11.30;99.90
18260;DHT22;9256;52.236;5.712;2023-03-29T09:50:09;11.30;99.90
18260;DHT22;9256;52.236;5.712;2023-03-29T09:52:38;11.40;99.90
18260;DHT22;9256;52.236;5.712;2023-03-29T09:55:05;11.50;99.90
18260;DHT22;9256;52.236;5.712;2023-03-29T09:57:33;11.40;99.90
18260;DHT22;9256;52.236;5.712;2023-03-29T10:00:02;11.50;99.90
18260;DHT22;9256;52.236;5.712;2023-03-29T10:02:30;11.70;99.90
18260;DHT22;9256;52.236;5.712;2023-03-29T10:05:03;12.10;99.90
18260;DHT22;9256;52.236;5.712;2023-03-29T10:07:37;12.20;99.90
18260;DHT22;9256;52.236;5.712;2023-03-29T10:10:09;12.20;99.90
18260;DHT22;9256;52.236;5.712;2023-03-29T10:12:36;12.30;99.90
18260;DHT22;9256;52.236;5.712;2023-03-29T10:15:04;12.50;99.90
18260;DHT22;9256;52.236;5.712;2023-03-29T10:17:37;12.40;99.90
18260;DHT22;9256;52.236;5.712;2023-03-29T10:20:12;12.60;99.90
18260;DHT22;9256;52.236;5.712;2023-03-29T10:22:46;12.40;99.90
18260;DHT22;9256;52.236;5.712;2023-03-29T10:25:15;12.20;99.90
18260;DHT22;9256;52.236;5.712;2023-03-29T10:27:45;12.10;99.90
18260;DHT22;9256;52.236;5.712;2023-03-29T10:30:23;11.90;99.90
18260;DHT22;9256;52.236;5.712;2023-03-29T10:32:55;11.90;99.90
18260;DHT22;9256;52.236;5.712;2023-03-29T10:35:28;11.90;99.90
18260;DHT22;9256;52.236;5.712;2023-03-29T10:37:57;12.00;99.90
18260;DHT22;9256;52.236;5.712;2023-03-29T10:40:27;12.10;99.90
18260;DHT22;9256;52.236;5.712;2023-03-29T10:42:58;12.20;99.90
18260;DHT22;9256;52.236;5.712;2023-03-29T10:45:28;12.00;99.90
18260;DHT22;9256;52.236;5.712;2023-03-29T10:47:56;11.80;99.90
18260;DHT22;9256;52.236;5.712;2023-03-29T10:50:30;11.90;99.90
18260;DHT22;9256;52.236;5.712;2023-03-29T10:52:59;11.80;99.90
18260;DHT22;9256;52.236;5.712;2023-03-29T10:55:31;11.80;99.90
18260;DHT22;9256;52.236;5.712;2023-03-29T10:58:07;12.00;99.90
18260;DHT22;9256;52.236;5.712;2023-03-29T11:00:43;12.20;99.90
18260;DHT22;9256;52.236;5.712;2023-03-29T11:03:24;12.40;99.90
18260;DHT22;9256;52.236;5.712;2023-03-29T11:05:59;12.50;99.90
18260;DHT22;9256;52.236;5.712;2023-03-29T11:08:45;12.60;99.90
18260;DHT22;9256;52.236;5.712;2023-03-29T11:14:12;12.40;99.90
18260;DHT22;9256;52.236;5.712;2023-03-29T11:16:44;12.60;99.90
18260;DHT22;9256;52.236;5.712;2023-03-29T11:19:37;12.80;99.90
18260;DHT22;9256;52.236;5.712;2023-03-29T11:22:13;13.30;99.90
18260;DHT22;9256;52.236;5.712;2023-03-29T11:24:55;13.60;99.90
18260;DHT22;9256;52.236;5.712;2023-03-29T11:27:32;13.40;99.90
18260;DHT22;9256;52.236;5.712;2023-03-29T11:30:12;13.40;99.90
18260;DHT22;9256;52.236;5.712;2023-03-29T11:32:48;13.50;99.90
18260;DHT22;9256;52.236;5.712;2023-03-29T11:38:18;13.20;99.90
18260;DHT22;9256;52.236;5.712;2023-03-29T11:40:53;13.00;99.90
18260;DHT22;9256;52.236;5.712;2023-03-29T11:43:25;12.90;99.90
18260;DHT22;9256;52.236;5.712;2023-03-29T11:45:57;12.60;99.90
18260;DHT22;9256;52.236;5.712;2023-03-29T11:48:29;12.60;99.90
18260;DHT22;9256;52.236;5.712;2023-03-29T11:51:00;12.60;99.90
18260;DHT22;9256;52.236;5.712;2023-03-29T11:53:38;12.60;99.90
18260;DHT22;9256;52.236;5.712;2023-03-29T11:56:11;12.70;99.90
18260;DHT22;9256;52.236;5.712;2023-03-29T11:58:41;12.60;99.90
18260;DHT22;9256;52.236;5.712;2023-03-29T12:01:13;12.60;99.90
18260;DHT22;9256;52.236;5.712;2023-03-29T12:03:44;12.50;99.90
18260;DHT22;9256;52.236;5.712;2023-03-29T12:06:15;12.50;99.90
18260;DHT22;9256;52.236;5.712;2023-03-29T12:08:52;12.60;99.90
18260;DHT22;9256;52.236;5.712;2023-03-29T12:11:25;12.40;99.90
18260;DHT22;9256;52.236;5.712;2023-03-29T12:13:57;12.30;99.90
18260;DHT22;9256;52.236;5.712;2023-03-29T12:16:30;12.30;99.90
18260;DHT22;9256;52.236;5.712;2023-03-29T12:19:03;12.40;99.90
18260;DHT22;9256;52.236;5.712;2023-03-29T12:21:33;12.30;99.90
18260;DHT22;9256;52.236;5.712;2023-03-29T12:24:03;12.50;99.90
18260;DHT22;9256;52.236;5.712;2023-03-29T12:26:54;12.50;99.90
18260;DHT22;9256;52.236;5.712;2023-03-29T12:29:38;12.70;99.90
18260;DHT22;9256;52.236;5.712;2023-03-29T12:32:26;12.90;99.90
18260;DHT22;9256;52.236;5.712;2023-03-29T12:35:10;13.10;99.90
18260;DHT22;9256;52.236;5.712;2023-03-29T12:37:44;13.20;99.90
18260;DHT22;9256;52.236;5.712;2023-03-29T12:40:16;13.10;99.90
18260;DHT22;9256;52.236;5.712;2023-03-29T12:42:50;13.20;99.90
18260;DHT22;9256;52.236;5.712;2023-03-29T12:45:19;13.30;99.90
18260;DHT22;9256;52.236;5.712;2023-03-29T12:47:48;13.00;99.90
18260;DHT22;9256;52.236;5.712;2023-03-29T12:50:23;12.90;99.90
18260;DHT22;9256;52.236;5.712;2023-03-29T12:53:00;12.90;99.90
18260;DHT22;9256;52.236;5.712;2023-03-29T12:55:33;13.00;99.90
18260;DHT22;9256;52.236;5.712;2023-03-29T12:58:02;13.00;99.90
18260;DHT22;9256;52.236;5.712;2023-03-29T13:00:42;13.00;99.90
18260;DHT22;9256;52.236;5.712;2023-03-29T13:03:28;13.20;99.90
18260;DHT22;9256;52.236;5.712;2023-03-29T13:05:59;13.20;99.90
18260;DHT22;9256;52.236;5.712;2023-03-29T13:08:33;13.00;99.90
18260;DHT22;9256;52.236;5.712;2023-03-29T13:11:04;12.80;99.90
18260;DHT22;9256;52.236;5.712;2023-03-29T13:13:33;12.50;99.90
18260;DHT22;9256;52.236;5.712;2023-03-29T13:16:09;12.30;99.90
18260;DHT22;9256;52.236;5.712;2023-03-29T13:18:51;12.20;99.90
18260;DHT22;9256;52.236;5.712;2023-03-29T13:21:26;12.20;99.90
18260;DHT22;9256;52.236;5.712;2023-03-29T13:24:02;12.10;99.90
18260;DHT22;9256;52.236;5.712;2023-03-29T13:26:42;12.20;99.90
18260;DHT22;9256;52.236;5.712;2023-03-29T13:29:39;12.10;99.90
18260;DHT22;9256;52.236;5.712;2023-03-29T13:32:27;12.10;99.90
18260;DHT22;9256;52.236;5.712;2023-03-29T13:35:03;12.00;99.90
18260;DHT22;9256;52.236;5.712;2023-03-29T13:37:38;12.10;99.90
18260;DHT22;9256;52.236;5.712;2023-03-29T13:43:17;12.40;99.90
18260;DHT22;9256;52.236;5.712;2023-03-29T13:45:45;12.60;99.90
18260;DHT22;9256;52.236;5.712;2023-03-29T13:48:23;12.70;99.90
18260;DHT22;9256;52.236;5.712;2023-03-29T13:50:53;13.20;99.90
18260;DHT22;9256;52.236;5.712;2023-03-29T13:53:27;13.60;99.90
18260;DHT22;9256;52.236;5.712;2023-03-29T13:55:56;13.80;99.90
18260;DHT22;9256;52.236;5.712;2023-03-29T13:58:31;13.80;99.90
18260;DHT22;9256;52.236;5.712;2023-03-29T14:01:06;13.80;99.90
18260;DHT22;9256;52.236;5.712;2023-03-29T14:03:40;13.70;99.90
18260;DHT22;9256;52.236;5.712;2023-03-29T14:06:11;13.40;99.90
18260;DHT22;9256;52.236;5.712;2023-03-29T14:08:40;13.30;99.90
18260;DHT22;9256;52.236;5.712;2023-03-29T14:11:18;13.10;99.90
18260;DHT22;9256;52.236;5.712;2023-03-29T14:13:47;13.00;99.90
18260;DHT22;9256;52.236;5.712;2023-03-29T14:16:14;13.00;99.90
18260;DHT22;9256;52.236;5.712;2023-03-29T14:18:41;12.90;99.90
18260;DHT22;9256;52.236;5.712;2023-03-29T14:21:12;12.90;99.90
18260;DHT22;9256;52.236;5.712;2023-03-29T14:23:43;12.80;99.90
18260;DHT22;9256;52.236;5.712;2023-03-29T14:26:15;12.90;99.90
18260;DHT22;9256;52.236;5.712;2023-03-29T14:28:46;12.90;99.90
18260;DHT22;9256;52.236;5.712;2023-03-29T14:31:18;13.00;99.90
18260;DHT22;9256;52.236;5.712;2023-03-29T14:33:51;13.10;99.90
18260;DHT22;9256;52.236;5.712;2023-03-29T14:36:19;13.10;99.90
18260;DHT22;9256;52.236;5.712;2023-03-29T14:38:49;13.20;99.90
18260;DHT22;9256;52.236;5.712;2023-03-29T14:41:17;13.20;99.90
18260;DHT22;9256;52.236;5.712;2023-03-29T14:43:44;13.20;99.90
18260;DHT22;9256;52.236;5.712;2023-03-29T14:46:15;13.20;99.90
18260;DHT22;9256;52.236;5.712;2023-03-29T14:48:44;13.10;99.90
18260;DHT22;9256;52.236;5.712;2023-03-29T14:51:11;13.00;99.90
18260;DHT22;9256;52.236;5.712;2023-03-29T14:53:39;13.00;99.90
18260;DHT22;9256;52.236;5.712;2023-03-29T14:56:08;13.10;99.90
18260;DHT22;9256;52.236;5.712;2023-03-29T14:58:36;13.30;99.90
18260;DHT22;9256;52.236;5.712;2023-03-29T15:01:06;13.30;99.90
18260;DHT22;9256;52.236;5.712;2023-03-29T15:03:41;13.30;99.90
18260;DHT22;9256;52.236;5.712;2023-03-29T15:06:10;13.50;99.90
18260;DHT22;9256;52.236;5.712;2023-03-29T15:08:39;13.60;99.90
18260;DHT22;9256;52.236;5.712;2023-03-29T15:11:12;13.70;99.90
18260;DHT22;9256;52.236;5.712;2023-03-29T15:13:41;13.70;99.90
18260;DHT22;9256;52.236;5.712;2023-03-29T15:16:12;13.70;99.90
18260;DHT22;9256;52.236;5.712;2023-03-29T15:18:41;13.60;99.90
18260;DHT22;9256;52.236;5.712;2023-03-29T15:21:12;13.50;99.90
18260;DHT22;9256;52.236;5.712;2023-03-29T15:23:45;13.40;99.90
18260;DHT22;9256;52.236;5.712;2023-03-29T15:26:18;13.40;99.90
18260;DHT22;9256;52.236;5.712;2023-03-29T15:28:47;13.50;99.90
18260;DHT22;9256;52.236;5.712;2023-03-29T15:31:17;13.40;99.90
18260;DHT22;9256;52.236;5.712;2023-03-29T15:33:45;13.40;99.90
18260;DHT22;9256;52.236;5.712;2023-03-29T15:36:13;13.40;99.90
18260;DHT22;9256;52.236;5.712;2023-03-29T15:38:42;13.40;99.90
18260;DHT22;9256;52.236;5.712;2023-03-29T15:41:09;13.60;99.90
18260;DHT22;9256;52.236;5.712;2023-03-29T15:43:36;13.70;99.90
18260;DHT22;9256;52.236;5.712;2023-03-29T15:46:03;13.80;99.90
18260;DHT22;9256;52.236;5.712;2023-03-29T15:48:30;13.70;99.90
18260;DHT22;9256;52.236;5.712;2023-03-29T15:50:58;13.60;99.90
18260;DHT22;9256;52.236;5.712;2023-03-29T15:53:26;13.60;99.90
18260;DHT22;9256;52.236;5.712;2023-03-29T15:55:54;13.60;99.90
18260;DHT22;9256;52.236;5.712;2023-03-29T15:58:24;13.50;99.90
18260;DHT22;9256;52.236;5.712;2023-03-29T16:00:55;13.50;99.90
18260;DHT22;9256;52.236;5.712;2023-03-29T16:03:24;13.50;99.90
18260;DHT22;9256;52.236;5.712;2023-03-29T16:05:52;13.50;99.90
18260;DHT22;9256;52.236;5.712;2023-03-29T16:08:21;13.50;99.90
18260;DHT22;9256;52.236;5.712;2023-03-29T16:10:50;13.40;99.90
18260;DHT22;9256;52.236;5.712;2023-03-29T16:13:17;13.40;99.90
18260;DHT22;9256;52.236;5.712;2023-03-29T16:15:45;13.40;99.90
18260;DHT22;9256;52.236;5.712;2023-03-29T16:18:12;13.40;99.90
18260;DHT22;9256;52.236;5.712;2023-03-29T16:20:39;13.40;99.90
18260;DHT22;9256;52.236;5.712;2023-03-29T16:23:06;13.40;99.90
18260;DHT22;9256;52.236;5.712;2023-03-29T16:25:35;13.30;99.90
18260;DHT22;9256;52.236;5.712;2023-03-29T16:28:05;13.20;99.90